Time;durP1;ratioP1;P1;durP2;ratioP2;P2;SDS_P1;SDS_P2;PMS_P1;PMS_P2;Temp;Humidity;BMP_temperature;BMP_pressure;BME280_temperature;BME280_humidity;BME280_pressure;Samples;Min_cycle;Max_cycle;Signal;HPM_P1;HPM_P2
2022/12/20 00:01:39;;;;;;;;;;;;;;;18.62;44.94;103155.50;5090455;28;1917;-56
2022/12/20 00:04:04;;;;;;;;;;;;;;;17.84;46.00;103164.28;5098777;28;1191;-56
2022/12/20 00:06:30;;;;;;;;;;;;;;;17.29;46.11;103162.94;5087552;28;1066;-56
2022/12/20 00:08:56;;;;;;;;;;;;;;;18.61;44.69;103158.50;5083183;28;1191;-56
2022/12/20 00:11:22;;;;;;;;;;;;;;;17.39;46.62;103154.22;5098922;28;1023;-56
2022/12/20 00:13:47;;;;;;;;;;;;;;;19.00;44.01;103161.03;5093862;28;1053;-56
2022/12/20 00:16:14;;;;;;;;;;;;;;;18.34;45.07;103150.53;5079160;28;1097;-56
2022/12/20 00:18:39;;;;;;;;;;;;;;;17.56;46.20;103162.81;5078657;28;1066;-56
2022/12/20 00:21:05;;;;;;;;;;;;;;;18.70;44.59;103156.28;5077274;28;1914;-55
2022/12/20 00:23:31;;;;;;;;;;;;;;;17.47;46.64;103156.72;5096824;28;1119;-55
2022/12/20 00:26:03;;;;;;;;;;;;;;;18.08;45.78;103159.88;5097947;28;2049;-55
2022/12/20 00:28:29;;;;;;;;;;;;;;;18.35;44.80;103149.44;5098308;28;1397;-55
2022/12/20 00:30:54;;;;;;;;;;;;;;;17.37;46.12;103162.69;5097084;28;1519;-55
2022/12/20 00:33:20;;;;;;;;;;;;;;;17.18;45.83;103160.91;5098580;28;1079;-55
2022/12/20 00:35:45;;;;;;;;;;;;;;;18.12;45.47;103178.47;5087196;28;1192;-55
2022/12/20 00:38:11;;;;;;;;;;;;;;;17.40;46.14;103165.03;5083218;28;1217;-55
2022/12/20 00:40:36;;;;;;;;;;;;;;;17.09;46.78;103161.16;5096452;28;1966;-53
2022/12/20 00:43:02;;;;;;;;;;;;;;;18.27;45.06;103145.09;5085216;28;1154;-54
2022/12/20 00:45:27;;;;;;;;;;;;;;;17.20;46.47;103147.78;5098645;28;1142;-54
2022/12/20 00:47:53;;;;;;;;;;;;;;;18.40;44.94;103138.59;5093436;28;1027;-53
2022/12/20 00:50:18;;;;;;;;;;;;;;;17.69;46.14;103132.44;5078371;28;844;-53
2022/12/20 00:52:44;;;;;;;;;;;;;;;17.13;46.33;103130.50;5083340;28;1038;-53
2022/12/20 00:55:09;;;;;;;;;;;;;;;18.38;45.15;103129.69;5092887;28;1948;-51
2022/12/20 00:57:35;;;;;;;;;;;;;;;17.51;46.56;103118.59;5095740;28;1186;-52
2022/12/20 01:00:00;;;;;;;;;;;;;;;17.01;46.59;103120.19;5098021;28;1964;-54
2022/12/20 01:02:25;;;;;;;;;;;;;;;18.03;45.34;103124.75;5097297;28;1097;-52
2022/12/20 01:04:51;;;;;;;;;;;;;;;17.15;46.92;103122.84;5097051;28;1086;-54
2022/12/20 01:07:16;;;;;;;;;;;;;;;18.49;44.79;103107.97;5098012;28;998;-54
2022/12/20 01:09:42;;;;;;;;;;;;;;;17.64;45.91;103110.22;5086683;28;1082;-54
2022/12/20 01:12:07;;;;;;;;;;;;;;;18.33;44.95;103113.03;5077433;28;1117;-55
2022/12/20 01:14:33;;;;;;;;;;;;;;;19.29;42.33;103107.81;5077732;28;1171;-53
2022/12/20 01:16:58;;;;;;;;;;;;;;;17.81;45.30;103104.19;5077951;28;1062;-53
2022/12/20 01:19:24;;;;;;;;;;;;;;;17.20;45.95;103106.53;5087300;28;1146;-54
2022/12/20 01:21:49;;;;;;;;;;;;;;;18.20;45.00;103105.75;5080168;28;1917;-54
2022/12/20 01:24:18;;;;;;;;;;;;;;;17.24;46.62;103107.78;5088454;28;1190;-54
2022/12/20 01:26:44;;;;;;;;;;;;;;;18.51;44.34;103105.81;5077360;28;2152;-54
2022/12/20 01:29:09;;;;;;;;;;;;;;;17.84;45.48;103106.47;5077823;28;1023;-54
2022/12/20 01:31:35;;;;;;;;;;;;;;;17.28;46.17;103107.13;5095289;28;1099;-55
2022/12/20 01:34:00;;;;;;;;;;;;;;;18.55;44.38;103104.28;5086113;28;1121;-55
2022/12/20 01:36:28;;;;;;;;;;;;;;;17.42;46.25;103091.38;5095813;28;1102;-54
2022/12/20 01:38:58;;;;;;;;;;;;;;;17.62;46.46;103084.88;5096743;28;1213;-54
2022/12/20 01:41:24;;;;;;;;;;;;;;;18.13;45.17;103080.19;5090580;28;1977;-54
2022/12/20 01:43:49;;;;;;;;;;;;;;;17.33;46.31;103076.19;5089931;28;1031;-54
2022/12/20 01:46:15;;;;;;;;;;;;;;;18.29;44.91;103073.25;5097117;28;1213;-54
2022/12/20 01:48:41;;;;;;;;;;;;;;;17.49;46.33;103074.81;5095906;28;1063;-54
2022/12/20 01:51:07;;;;;;;;;;;;;;;18.25;44.59;103041.72;5095808;28;998;-54
2022/12/20 01:53:32;;;;;;;;;;;;;;;18.88;43.06;103067.25;5079153;28;1306;-55
2022/12/20 01:55:59;;;;;;;;;;;;;;;17.51;45.82;103067.19;5089510;28;2023;-54
2022/12/20 01:58:25;;;;;;;;;;;;;;;17.06;46.13;103057.13;5095908;28;1157;-54
2022/12/20 02:00:50;;;;;;;;;;;;;;;17.84;45.54;103051.44;5091006;28;2030;-54
2022/12/20 02:03:15;;;;;;;;;;;;;;;17.45;46.12;103046.91;5089558;28;908;-55
2022/12/20 02:05:44;;;;;;;;;;;;;;;17.00;46.55;103048.91;5096357;28;1192;-54
2022/12/20 02:08:09;;;;;;;;;;;;;;;18.59;44.16;103045.75;5083725;28;1083;-55
2022/12/20 02:10:41;;;;;;;;;;;;;;;17.35;46.16;103041.09;5112299;28;1206;-54
2022/12/20 02:13:09;;;;;;;;;;;;;;;17.24;46.60;103039.88;5095462;28;1110;-54
2022/12/20 02:15:38;;;;;;;;;;;;;;;17.70;45.78;103043.31;5087729;28;965;-55
2022/12/20 02:18:07;;;;;;;;;;;;;;;18.12;45.28;103042.72;5093789;28;980;-53
2022/12/20 02:20:35;;;;;;;;;;;;;;;19.67;41.67;103036.72;5083548;28;1901;-54
2022/12/20 02:23:13;;;;;;;;;;;;;;;17.84;45.35;103027.53;5095245;28;1527;-54
2022/12/20 02:25:41;;;;;;;;;;;;;;;17.28;45.62;103034.78;5087130;28;2076;-54
2022/12/20 02:28:07;;;;;;;;;;;;;;;17.86;45.56;103027.28;5107771;28;1261;-54
2022/12/20 02:30:33;;;;;;;;;;;;;;;17.72;45.97;103032.91;5096491;28;1042;-54
2022/12/20 02:32:59;;;;;;;;;;;;;;;17.08;46.10;103029.41;5094649;28;1019;-54
2022/12/20 02:35:26;;;;;;;;;;;;;;;18.79;43.65;103034.47;5094761;28;1193;-53
2022/12/20 02:37:53;;;;;;;;;;;;;;;17.36;46.15;103031.78;5081313;28;1231;-53
2022/12/20 02:40:20;;;;;;;;;;;;;;;17.45;46.29;103018.56;5086836;28;1980;-54
2022/12/20 02:42:46;;;;;;;;;;;;;;;17.73;45.75;103034.59;5076264;28;1046;-54
2022/12/20 02:45:14;;;;;;;;;;;;;;;17.06;46.60;103032.38;5085453;28;1127;-54
2022/12/20 02:47:45;;;;;;;;;;;;;;;18.21;44.88;103044.09;5081461;28;1612;-54
2022/12/20 02:50:10;;;;;;;;;;;;;;;17.23;46.35;103020.88;5094543;28;1326;-54
2022/12/20 02:52:36;;;;;;;;;;;;;;;19.05;42.98;103020.53;5082825;28;1193;-54
2022/12/20 02:55:01;;;;;;;;;;;;;;;18.66;43.54;103017.25;5090731;28;1851;-54
2022/12/20 02:57:36;;;;;;;;;;;;;;;17.39;45.92;103009.31;5072812;28;1152;-54
2022/12/20 03:00:01;;;;;;;;;;;;;;;17.18;45.84;103012.44;5074542;28;1913;-54
2022/12/20 03:03:21;;;;;;;;;;;;;;;17.08;46.37;103013.78;5079877;28;1142;-54
2022/12/20 03:05:15;;;;;;;;;;;;;;;17.86;45.55;103016.28;5081401;28;1524;-54
2022/12/20 03:07:41;;;;;;;;;;;;;;;17.07;46.41;103020.34;5096073;28;1122;-54
2022/12/20 03:10:06;;;;;;;;;;;;;;;17.49;46.09;103016.19;5094905;28;1103;-53
2022/12/20 03:12:32;;;;;;;;;;;;;;;17.42;46.50;103014.34;5095906;28;1058;-54
2022/12/20 03:14:57;;;;;;;;;;;;;;;16.87;46.50;103003.97;5081186;28;1252;-54
2022/12/20 03:17:23;;;;;;;;;;;;;;;18.62;43.77;103000.34;5096272;28;1102;-54
2022/12/20 03:19:48;;;;;;;;;;;;;;;17.21;46.45;102995.50;5096580;28;1981;-51
2022/12/20 03:22:14;;;;;;;;;;;;;;;18.44;44.43;103007.59;5091244;28;1281;-54
2022/12/20 03:24:39;;;;;;;;;;;;;;;18.13;44.86;103001.19;5092820;28;1979;-54
2022/12/20 03:27:10;;;;;;;;;;;;;;;17.18;45.97;103002.28;5097944;28;1655;-53
2022/12/20 03:29:36;;;;;;;;;;;;;;;17.38;45.92;103002.13;5099959;28;1093;-53
2022/12/20 03:32:01;;;;;;;;;;;;;;;17.53;46.02;102999.03;5089791;28;1181;-54
2022/12/20 03:34:27;;;;;;;;;;;;;;;17.67;46.30;102998.91;5092104;28;1298;-53
2022/12/20 03:36:52;;;;;;;;;;;;;;;19.30;42.19;103009.31;5079445;28;1078;-54
2022/12/20 03:39:18;;;;;;;;;;;;;;;17.61;45.83;103007.00;5092690;28;1060;-53
2022/12/20 03:41:44;;;;;;;;;;;;;;;17.17;46.04;103021.78;5088049;28;1974;-54
2022/12/20 03:44:12;;;;;;;;;;;;;;;17.44;45.93;103022.38;5082769;28;1129;-54
2022/12/20 03:46:38;;;;;;;;;;;;;;;18.07;45.01;103015.84;5077842;28;1113;-54
2022/12/20 03:49:04;;;;;;;;;;;;;;;17.10;46.24;103002.56;5094163;28;1124;-54
2022/12/20 03:51:30;;;;;;;;;;;;;;;18.05;45.38;103009.75;5098048;28;1472;-53
2022/12/20 03:53:56;;;;;;;;;;;;;;;17.37;46.25;103000.44;5097632;28;1156;-54
2022/12/20 03:56:30;;;;;;;;;;;;;;;17.74;45.96;103006.03;5091853;28;2065;-52
2022/12/20 03:58:56;;;;;;;;;;;;;;;18.37;44.22;102992.19;5084657;28;1150;-53
2022/12/20 04:01:22;;;;;;;;;;;;;;;17.22;46.46;102997.16;5098208;28;1974;-53
2022/12/20 04:03:48;;;;;;;;;;;;;;;18.36;44.63;102996.88;5080477;28;1203;-54
2022/12/20 04:06:14;;;;;;;;;;;;;;;17.48;46.08;102993.38;5088665;28;1117;-53
2022/12/20 04:08:40;;;;;;;;;;;;;;;17.20;46.70;103013.06;5080059;28;1182;-53
2022/12/20 04:11:18;;;;;;;;;;;;;;;18.51;43.80;103003.88;5088535;28;1174;-54
2022/12/20 04:13:51;;;;;;;;;;;;;;;17.13;46.24;103004.88;5084041;28;1463;-53
2022/12/20 04:16:18;;;;;;;;;;;;;;;19.02;43.06;102998.97;5091055;28;1211;-54
2022/12/20 04:18:44;;;;;;;;;;;;;;;17.69;45.64;102999.53;5099083;28;1119;-57
2022/12/20 04:21:10;;;;;;;;;;;;;;;17.28;45.59;102990.78;5097787;28;1977;-57
2022/12/20 04:23:40;;;;;;;;;;;;;;;18.57;43.66;102997.47;5095844;28;1356;-57
2022/12/20 04:26:05;;;;;;;;;;;;;;;17.35;46.02;102997.06;5098591;28;2262;-59
2022/12/20 04:28:32;;;;;;;;;;;;;;;18.29;44.77;103012.66;5097102;28;1194;-59
2022/12/20 04:30:58;;;;;;;;;;;;;;;18.00;44.86;103009.59;5097644;28;1124;-60
2022/12/20 04:33:27;;;;;;;;;;;;;;;17.23;45.74;103007.13;5083780;28;1313;-60
2022/12/20 04:35:53;;;;;;;;;;;;;;;18.07;45.10;103015.03;5088404;28;1396;-60
2022/12/20 04:38:20;;;;;;;;;;;;;;;17.19;46.36;103003.97;5092126;28;1151;-62
2022/12/20 04:40:47;;;;;;;;;;;;;;;17.28;46.26;103004.53;5077387;28;1909;-57
2022/12/20 04:43:13;;;;;;;;;;;;;;;18.16;44.41;103010.03;5083889;28;1420;-59
2022/12/20 04:45:38;;;;;;;;;;;;;;;17.21;46.15;103017.50;5083976;28;1127;-64
2022/12/20 04:48:04;;;;;;;;;;;;;;;18.79;43.38;103017.09;5080650;28;1541;-63
2022/12/20 04:50:35;;;;;;;;;;;;;;;17.75;45.22;103006.84;5094474;28;1118;-60
2022/12/20 04:55:47;;;;;;;;;;;;;;;18.62;43.31;103011.38;5083743;28;1961;-61
2022/12/20 04:58:13;;;;;;;;;;;;;;;17.51;45.38;103000.31;5096445;28;1151;-64
2022/12/20 05:00:39;;;;;;;;;;;;;;;19.35;41.98;102998.41;5095347;28;1909;-64
2022/12/20 05:03:21;;;;;;;;;;;;;;;17.89;44.77;103002.91;5096085;28;1128;-61
2022/12/20 05:05:46;;;;;;;;;;;;;;;17.37;45.32;102996.84;5097713;28;1090;-61
2022/12/20 05:08:12;;;;;;;;;;;;;;;18.73;43.63;103018.88;5098481;28;999;-57
2022/12/20 05:10:37;;;;;;;;;;;;;;;17.52;45.67;102996.50;5095901;28;1084;-56
2022/12/20 05:13:03;;;;;;;;;;;;;;;17.10;45.92;103008.06;5098043;28;1094;-57
2022/12/20 05:15:36;;;;;;;;;;;;;;;18.13;44.70;102997.56;5095842;28;1133;-58
2022/12/20 05:18:02;;;;;;;;;;;;;;;17.21;46.03;102984.50;5096668;28;1436;-57
2022/12/20 05:20:38;;;;;;;;;;;;;;;18.67;43.64;102999.66;5081272;28;1902;-58
2022/12/20 05:28:37;;;;;;;;;;;;;;;17.94;44.98;103008.59;5096377;28;1339;-59
2022/12/20 05:31:02;;;;;;;;;;;;;;;17.27;46.28;103016.59;5096528;28;1117;-59
2022/12/20 05:33:30;;;;;;;;;;;;;;;19.24;42.14;103024.06;5095974;28;1398;-59
2022/12/20 05:35:56;;;;;;;;;;;;;;;17.91;44.69;103022.81;5097508;28;1067;-57
2022/12/20 05:38:22;;;;;;;;;;;;;;;17.31;45.59;103001.34;5096331;28;1328;-56
2022/12/20 05:40:48;;;;;;;;;;;;;;;18.11;44.61;102994.22;5095524;28;1910;-59
2022/12/20 05:43:14;;;;;;;;;;;;;;;17.19;46.11;103008.63;5095322;28;1184;-56
2022/12/20 05:45:47;;;;;;;;;;;;;;;18.87;42.87;102996.59;5095590;28;1898;-54
2022/12/20 05:48:14;;;;;;;;;;;;;;;18.08;44.41;103000.19;5096260;28;1333;-57
2022/12/20 05:50:43;;;;;;;;;;;;;;;17.28;45.96;103001.78;5096637;28;1007;-58
2022/12/20 05:53:26;;;;;;;;;;;;;;;17.98;45.06;103008.13;5095849;28;1216;-56
2022/12/20 05:55:54;;;;;;;;;;;;;;;17.35;45.81;103007.22;5089533;28;2416;-58
2022/12/20 05:58:24;;;;;;;;;;;;;;;18.06;44.86;103011.44;5096051;28;1322;-56
2022/12/20 06:00:59;;;;;;;;;;;;;;;18.29;43.99;102999.72;5095903;28;1909;-61
2022/12/20 06:03:25;;;;;;;;;;;;;;;17.37;45.74;103007.84;5093690;28;1223;-61
2022/12/20 06:05:50;;;;;;;;;;;;;;;18.13;44.61;103023.22;5095878;28;1182;-59
2022/12/20 06:08:23;;;;;;;;;;;;;;;17.37;45.76;103033.44;5095154;28;1398;-57
2022/12/20 06:10:50;;;;;;;;;;;;;;;17.03;45.90;103023.75;5095808;28;1153;-60
2022/12/20 06:13:16;;;;;;;;;;;;;;;17.85;44.78;103023.72;5096729;28;1101;-60
2022/12/20 06:15:42;;;;;;;;;;;;;;;17.98;44.95;103016.38;5095187;28;1230;-61
2022/12/20 06:18:07;;;;;;;;;;;;;;;19.55;41.53;103019.31;5096527;28;1074;-61
2022/12/20 06:20:34;;;;;;;;;;;;;;;18.18;44.19;103019.75;5095393;28;1902;-62
2022/12/20 06:23:01;;;;;;;;;;;;;;;17.44;45.42;103009.47;5094636;28;1396;-61
2022/12/20 06:25:31;;;;;;;;;;;;;;;18.98;42.50;103009.59;5095311;28;2542;-59
2022/12/20 06:27:57;;;;;;;;;;;;;;;16.64;47.75;103012.75;5094810;28;1152;-59
2022/12/20 06:30:23;;;;;;;;;;;;;;;17.19;46.53;103014.13;5095437;28;1160;-59
2022/12/20 06:33:03;;;;;;;;;;;;;;;16.89;47.26;103009.28;5094432;28;1273;-59
2022/12/20 06:35:29;;;;;;;;;;;;;;;16.70;47.40;103022.84;5094632;28;1276;-61
2022/12/20 06:37:55;;;;;;;;;;;;;;;16.49;47.99;103021.25;5094710;28;1372;-57
2022/12/20 06:40:21;;;;;;;;;;;;;;;16.32;48.53;103020.91;5085444;28;1906;-56
2022/12/20 06:42:47;;;;;;;;;;;;;;;16.20;48.61;103022.63;5091880;28;1289;-57
2022/12/20 06:45:12;;;;;;;;;;;;;;;16.03;48.83;103034.13;5080091;28;1486;-56
2022/12/20 06:47:38;;;;;;;;;;;;;;;15.90;49.21;103025.91;5092245;28;1161;-56
2022/12/20 06:50:04;;;;;;;;;;;;;;;15.77;49.55;103014.91;5093898;28;1234;-57
2022/12/20 06:52:30;;;;;;;;;;;;;;;15.64;49.53;103024.00;5092725;28;1155;-56
2022/12/20 06:54:56;;;;;;;;;;;;;;;15.51;49.86;103013.88;5088426;28;1915;-57
2022/12/20 06:57:22;;;;;;;;;;;;;;;15.42;49.96;103009.66;5094651;28;1120;-57
2022/12/20 06:59:49;;;;;;;;;;;;;;;16.85;46.68;103008.00;5083837;28;1229;-57
2022/12/20 07:02:15;;;;;;;;;;;;;;;16.63;46.96;103012.97;5078412;28;1038;-57
2022/12/20 07:04:41;;;;;;;;;;;;;;;15.97;48.56;103018.50;5088144;28;1170;-58
2022/12/20 07:07:06;;;;;;;;;;;;;;;15.67;49.17;103016.19;5081220;28;905;-59
2022/12/20 07:09:32;;;;;;;;;;;;;;;15.90;49.14;103009.44;5085935;28;1102;-59
2022/12/20 07:11:57;;;;;;;;;;;;;;;17.21;45.73;103015.59;5095215;28;1281;-59
2022/12/20 07:14:23;;;;;;;;;;;;;;;16.19;47.84;103015.50;5081649;28;1098;-60
2022/12/20 07:16:49;;;;;;;;;;;;;;;15.77;48.98;103001.19;5082592;28;859;-59
2022/12/20 07:19:14;;;;;;;;;;;;;;;15.62;49.30;103015.16;5095965;28;1094;-59
2022/12/20 07:21:40;;;;;;;;;;;;;;;17.18;45.63;103007.78;5090702;28;1965;-58
2022/12/20 07:24:05;;;;;;;;;;;;;;;16.47;47.28;103011.59;5084869;28;1242;-57
2022/12/20 07:26:31;;;;;;;;;;;;;;;15.90;48.55;102996.53;5081342;28;1788;-57
2022/12/20 07:28:56;;;;;;;;;;;;;;;15.68;49.26;102992.34;5093888;28;1075;-56
2022/12/20 07:31:22;;;;;;;;;;;;;;;15.51;49.53;102990.03;5094809;28;1225;-55
2022/12/20 07:33:47;;;;;;;;;;;;;;;17.22;45.51;102994.44;5095528;28;1249;-58
2022/12/20 07:36:13;;;;;;;;;;;;;;;16.43;47.30;102995.50;5093910;28;1122;-58
2022/12/20 07:38:38;;;;;;;;;;;;;;;15.90;48.81;102982.00;5080440;28;1335;-58
2022/12/20 07:41:07;;;;;;;;;;;;;;;15.64;49.33;102978.22;5083715;28;1978;-58
2022/12/20 07:43:33;;;;;;;;;;;;;;;17.10;45.79;102972.31;5093412;28;1110;-58
2022/12/20 07:45:58;;;;;;;;;;;;;;;16.47;46.98;102978.63;5084026;28;1114;-58
2022/12/20 07:48:24;;;;;;;;;;;;;;;15.91;48.74;102975.47;5082161;28;1142;-58
2022/12/20 07:50:53;;;;;;;;;;;;;;;15.66;49.12;102969.78;5093979;28;1229;-58
2022/12/20 07:53:19;;;;;;;;;;;;;;;15.92;48.82;102966.16;5087162;28;1250;-58
2022/12/20 07:55:44;;;;;;;;;;;;;;;17.28;45.16;102963.31;5094268;28;2001;-58
2022/12/20 07:58:10;;;;;;;;;;;;;;;16.32;47.76;102967.91;5094659;28;1087;-58
2022/12/20 08:00:35;;;;;;;;;;;;;;;15.88;48.51;102970.41;5094261;28;1902;-58
2022/12/20 08:03:02;;;;;;;;;;;;;;;15.58;49.32;102970.84;5094912;28;1083;-58
2022/12/20 08:05:28;;;;;;;;;;;;;;;16.25;47.69;102962.44;5083140;28;1218;-63
2022/12/20 08:07:53;;;;;;;;;;;;;;;17.01;45.79;102963.53;5089884;28;1253;-62
2022/12/20 08:10:19;;;;;;;;;;;;;;;16.05;48.19;102965.28;5090159;28;1226;-59
2022/12/20 08:12:44;;;;;;;;;;;;;;;15.72;49.13;102956.06;5080128;28;1087;-58
2022/12/20 08:15:10;;;;;;;;;;;;;;;16.71;46.99;102969.59;5089358;28;1233;-61
2022/12/20 08:17:35;;;;;;;;;;;;;;;17.19;45.20;102967.38;5084952;28;1288;-61
2022/12/20 08:20:01;;;;;;;;;;;;;;;16.23;47.54;102967.34;5097881;28;1910;-61
2022/12/20 08:22:26;;;;;;;;;;;;;;;15.89;48.62;102958.34;5093355;28;1292;-61
2022/12/20 08:24:52;;;;;;;;;;;;;;;15.78;49.17;102959.84;5095506;28;1776;-60
2022/12/20 08:27:17;;;;;;;;;;;;;;;17.36;45.11;102957.53;5095368;28;1240;-57
2022/12/20 08:29:42;;;;;;;;;;;;;;;16.41;47.12;102950.97;5095437;28;1209;-57
2022/12/20 08:32:09;;;;;;;;;;;;;;;15.92;48.34;102957.91;5098629;28;1186;-60
2022/12/20 08:34:34;;;;;;;;;;;;;;;15.68;49.24;102954.81;5084779;28;1031;-64
2022/12/20 08:36:59;;;;;;;;;;;;;;;16.55;47.27;102942.63;5096976;28;1095;-61
2022/12/20 08:39:25;;;;;;;;;;;;;;;16.79;46.18;102945.66;5098219;28;1002;-60
2022/12/20 08:41:51;;;;;;;;;;;;;;;16.01;48.06;102937.41;5097908;28;1901;-59
2022/12/20 08:44:16;;;;;;;;;;;;;;;15.71;49.16;102932.44;5107497;28;1009;-60
2022/12/20 08:46:42;;;;;;;;;;;;;;;15.59;49.46;102923.16;5098356;28;1030;-58
2022/12/20 08:49:07;;;;;;;;;;;;;;;17.23;45.36;102910.88;5098284;28;1046;-61
2022/12/20 08:51:32;;;;;;;;;;;;;;;16.30;47.50;102913.22;5088690;28;1053;-60
2022/12/20 08:53:58;;;;;;;;;;;;;;;15.86;48.67;102918.47;5089769;28;1114;-59
2022/12/20 08:56:23;;;;;;;;;;;;;;;15.63;49.26;102918.13;5095449;28;1898;-59
2022/12/20 08:58:49;;;;;;;;;;;;;;;16.97;46.36;102910.06;5098514;28;1269;-59
2022/12/20 09:01:18;;;;;;;;;;;;;;;16.63;46.80;102912.16;5094658;28;1992;-58
2022/12/20 09:03:43;;;;;;;;;;;;;;;16.03;48.25;102907.88;5094262;28;1175;-60
2022/12/20 09:06:09;;;;;;;;;;;;;;;15.75;48.95;102902.66;5089805;28;966;-60
2022/12/20 09:08:35;;;;;;;;;;;;;;;17.04;46.00;102899.84;5088796;28;1035;-60
2022/12/20 09:11:07;;;;;;;;;;;;;;;16.71;46.52;102891.84;5099063;28;924;-58
2022/12/20 09:13:32;;;;;;;;;;;;;;;16.10;47.99;102879.53;5111646;28;923;-60
2022/12/20 09:16:01;;;;;;;;;;;;;;;15.78;48.80;102858.34;5099350;28;892;-59
2022/12/20 09:18:26;;;;;;;;;;;;;;;16.90;46.35;102881.78;5100357;28;1540;-60
2022/12/20 09:20:52;;;;;;;;;;;;;;;16.70;46.77;102877.25;5090552;28;1988;-60
2022/12/20 09:23:17;;;;;;;;;;;;;;;16.07;48.34;102878.06;5093788;28;1319;-62
2022/12/20 09:25:42;;;;;;;;;;;;;;;15.82;48.96;102880.72;5087292;28;2410;-59
2022/12/20 09:28:08;;;;;;;;;;;;;;;15.57;49.57;102873.16;5098001;28;1110;-58
2022/12/20 09:30:33;;;;;;;;;;;;;;;17.04;46.14;102861.38;5097424;28;855;-57
2022/12/20 09:32:59;;;;;;;;;;;;;;;16.69;46.74;102856.34;5097322;28;1203;-57
2022/12/20 09:35:25;;;;;;;;;;;;;;;16.03;48.21;102865.84;5097405;28;1156;-57
2022/12/20 09:37:51;;;;;;;;;;;;;;;15.73;48.90;102853.50;5096872;28;999;-57
2022/12/20 09:40:17;;;;;;;;;;;;;;;16.34;47.60;102848.59;5097871;28;1906;-57
2022/12/20 09:42:43;;;;;;;;;;;;;;;17.25;45.03;102840.00;5092675;28;912;-57
2022/12/20 09:45:08;;;;;;;;;;;;;;;16.26;47.68;102843.34;5097227;28;1137;-57
2022/12/20 09:47:34;;;;;;;;;;;;;;;15.91;48.47;102841.03;5098076;28;1047;-57
2022/12/20 09:50:00;;;;;;;;;;;;;;;15.72;49.12;102838.13;5096324;28;1103;-57
2022/12/20 09:52:34;;;;;;;;;;;;;;;16.07;48.34;102835.03;5095619;28;1060;-57
2022/12/20 09:55:00;;;;;;;;;;;;;;;17.21;45.34;102833.31;5092652;28;1867;-57
2022/12/20 09:57:25;;;;;;;;;;;;;;;16.20;47.75;102816.78;5097228;28;1053;-57
2022/12/20 09:59:51;;;;;;;;;;;;;;;15.82;48.82;102818.50;5096768;28;1118;-57
2022/12/20 10:02:19;;;;;;;;;;;;;;;17.07;46.05;102819.69;5097023;28;1937;-57
2022/12/20 10:04:45;;;;;;;;;;;;;;;16.64;46.96;102812.22;5097351;28;1038;-57
2022/12/20 10:07:10;;;;;;;;;;;;;;;16.01;48.56;102811.19;5095980;28;951;-57
2022/12/20 10:09:53;;;;;;;;;;;;;;;15.76;49.03;102810.25;5086367;28;1075;-57
2022/12/20 10:12:18;;;;;;;;;;;;;;;15.53;49.52;102801.47;5081205;28;1185;-57
2022/12/20 10:14:53;;;;;;;;;;;;;;;16.33;47.75;102802.13;5096767;28;1065;-57
2022/12/20 10:17:40;;;;;;;;;;;;;;;17.00;45.85;102801.56;5095993;28;1338;-57
2022/12/20 10:20:24;;;;;;;;;;;;;;;16.02;48.43;102795.56;5096866;28;1902;-57
2022/12/20 10:22:52;;;;;;;;;;;;;;;15.68;49.30;102795.72;5096670;28;1038;-60
2022/12/20 10:25:21;;;;;;;;;;;;;;;16.10;48.42;102791.72;5088166;28;1038;-58
2022/12/20 10:27:47;;;;;;;;;;;;;;;17.27;45.00;102774.63;5095597;28;1158;-58
2022/12/20 10:30:17;;;;;;;;;;;;;;;16.23;47.75;102781.50;5095789;28;1200;-58
2022/12/20 10:32:43;;;;;;;;;;;;;;;15.81;48.75;102780.28;5096323;28;1189;-60
2022/12/20 10:35:09;;;;;;;;;;;;;;;16.79;46.57;102762.44;5096385;28;1205;-59
2022/12/20 10:37:34;;;;;;;;;;;;;;;16.61;46.83;102771.47;5095748;28;1595;-59
2022/12/20 10:40:00;;;;;;;;;;;;;;;15.96;48.52;102758.88;5095989;28;1897;-57
2022/12/20 10:42:31;;;;;;;;;;;;;;;15.71;48.81;102751.41;5095788;28;1308;-57
2022/12/20 10:44:57;;;;;;;;;;;;;;;16.59;47.03;102740.63;5096604;28;1189;-62
2022/12/20 10:47:24;;;;;;;;;;;;;;;16.86;46.19;102745.91;5096190;28;1035;-58
2022/12/20 10:49:49;;;;;;;;;;;;;;;16.08;48.16;102754.34;5095280;28;1059;-62
2022/12/20 10:52:17;;;;;;;;;;;;;;;15.78;48.77;102747.78;5095598;28;1049;-59
2022/12/20 10:54:43;;;;;;;;;;;;;;;15.72;49.02;102746.75;5094317;28;1950;-61
2022/12/20 10:57:17;;;;;;;;;;;;;;;17.26;45.15;102743.56;5089434;28;1095;-63
2022/12/20 10:59:44;;;;;;;;;;;;;;;16.21;47.59;102730.63;5096496;28;1090;-61
2022/12/20 11:02:39;;;;;;;;;;;;;;;15.83;48.76;102717.81;5094726;28;1914;-61
2022/12/20 11:05:10;;;;;;;;;;;;;;;15.69;48.95;102726.09;5086896;28;1487;-59
2022/12/20 11:07:36;;;;;;;;;;;;;;;17.22;45.49;102716.75;5083076;28;1363;-57
2022/12/20 11:10:03;;;;;;;;;;;;;;;16.20;47.60;102717.94;5095798;28;1046;-59
2022/12/20 11:12:28;;;;;;;;;;;;;;;15.76;48.60;102704.09;5094562;28;1042;-56
2022/12/20 11:15:07;;;;;;;;;;;;;;;15.62;49.28;102711.56;5095884;28;1014;-56
2022/12/20 11:17:35;;;;;;;;;;;;;;;17.17;45.36;102698.19;5095684;28;1153;-54
2022/12/20 11:20:00;;;;;;;;;;;;;;;16.28;47.54;102698.47;5095363;28;1901;-56
2022/12/20 11:22:29;;;;;;;;;;;;;;;15.84;48.36;102690.16;5088932;28;1094;-56
2022/12/20 11:24:54;;;;;;;;;;;;;;;15.65;49.20;102696.59;5087778;28;1946;-57
2022/12/20 11:27:23;;;;;;;;;;;;;;;16.46;47.08;102688.59;5082197;28;1138;-56
2022/12/20 11:29:57;;;;;;;;;;;;;;;16.84;45.85;102676.56;5095257;28;1053;-53
2022/12/20 11:32:34;;;;;;;;;;;;;;;15.94;48.09;102673.22;5095192;28;984;-52
2022/12/20 11:35:00;;;;;;;;;;;;;;;15.64;48.96;102676.56;5095618;28;1054;-51
2022/12/20 11:37:25;;;;;;;;;;;;;;;15.69;49.12;102665.75;5090014;28;1231;-54
2022/12/20 11:40:09;;;;;;;;;;;;;;;17.24;45.02;102668.72;5092862;28;1444;-57
2022/12/20 11:42:41;;;;;;;;;;;;;;;16.21;47.56;102659.25;5084767;28;1460;-54
2022/12/20 11:45:24;;;;;;;;;;;;;;;15.78;48.44;102666.34;5092352;28;1213;-52
2022/12/20 11:47:49;;;;;;;;;;;;;;;15.91;48.57;102662.69;5085402;28;1508;-57
2022/12/20 11:50:27;;;;;;;;;;;;;;;17.41;44.86;102655.16;5087842;28;1030;-56
2022/12/20 11:53:22;;;;;;;;;;;;;;;16.32;47.51;102649.44;5098677;28;1135;-56
2022/12/20 11:55:48;;;;;;;;;;;;;;;15.81;48.52;102645.84;5070464;28;1925;-58
2022/12/20 11:58:21;;;;;;;;;;;;;;;15.70;48.88;102645.50;5089491;28;991;-57
2022/12/20 12:00:52;;;;;;;;;;;;;;;17.23;45.12;102639.53;5084543;28;1902;-56
2022/12/20 12:03:20;;;;;;;;;;;;;;;16.23;47.63;102636.00;5098584;28;1042;-55
2022/12/20 12:05:52;;;;;;;;;;;;;;;15.83;48.55;102638.25;5093231;28;1063;-56
2022/12/20 12:08:20;;;;;;;;;;;;;;;15.58;49.33;102625.31;5108079;28;902;-59
2022/12/20 12:11:15;;;;;;;;;;;;;;;16.32;47.63;102625.56;5095613;28;1194;-56
2022/12/20 12:13:40;;;;;;;;;;;;;;;16.79;46.26;102625.06;5067484;28;1271;-56
2022/12/20 12:16:13;;;;;;;;;;;;;;;16.06;48.04;102626.66;5098620;28;1128;-56
2022/12/20 12:18:39;;;;;;;;;;;;;;;15.70;48.73;102629.03;5092640;28;1252;-56
2022/12/20 12:21:09;;;;;;;;;;;;;;;16.50;47.21;102622.00;5097637;28;1909;-54
2022/12/20 12:23:37;;;;;;;;;;;;;;;17.13;45.33;102619.19;5105385;28;999;-56
2022/12/20 12:26:09;;;;;;;;;;;;;;;16.19;47.70;102620.22;5078264;28;1765;-54
2022/12/20 12:28:35;;;;;;;;;;;;;;;15.83;48.67;102622.63;5089265;28;1205;-56
2022/12/20 12:31:05;;;;;;;;;;;;;;;15.60;49.38;102617.72;5088862;28;1083;-58
2022/12/20 12:33:35;;;;;;;;;;;;;;;16.82;46.43;102616.38;5080699;28;1254;-57
2022/12/20 12:36:20;;;;;;;;;;;;;;;16.77;46.35;102622.56;5086688;28;1198;-56
2022/12/20 12:39:04;;;;;;;;;;;;;;;16.02;48.23;102615.31;5078689;28;1366;-58
2022/12/20 12:41:44;;;;;;;;;;;;;;;15.70;48.99;102617.25;5091016;28;1918;-59
2022/12/20 12:44:19;;;;;;;;;;;;;;;16.95;45.93;102617.31;5086787;28;1322;-56
2022/12/20 12:46:45;;;;;;;;;;;;;;;16.71;46.45;102609.72;5096539;28;1134;-53
2022/12/20 12:49:13;;;;;;;;;;;;;;;16.03;48.27;102622.47;5097311;28;1062;-57
2022/12/20 12:51:40;;;;;;;;;;;;;;;15.74;49.03;102608.34;5097695;28;991;-56
2022/12/20 12:54:08;;;;;;;;;;;;;;;17.21;45.53;102605.94;5094413;28;1023;-55
2022/12/20 12:56:41;;;;;;;;;;;;;;;16.38;47.30;102608.22;5095039;28;1796;-56
2022/12/20 12:59:06;;;;;;;;;;;;;;;15.87;48.64;102604.66;5084312;28;1193;-55